NWS Home NWS Lubbock West Texas Mesonet South Sector Latest Conditions as of 1210 PM, Sun Jun 25, 2017

Latest   N   C   S   Daily Sum   3hrΔ   24hrΔ   Soil Data 
Site Map   24hr Precip   72hr Precip   Google Plot


Station Time of Last Temp Dew Pt. RH Wind Direction Wind Speed Wind Gust Max Wind Max Temp Min Temp Max RH Min RH Altimeter 1HR Rain Today's Rain Solar Rad
Andrews 2E  12:05 PM 81 61 52% E915 27 mph 91° @ 1250 AM 81 69 83 51 30.27" 0 0.00 489
Aspermont 3NE  12:05 PM 80 64 60% NE69 17 mph 106° @ 1215 AM 81 68 95 57 30.26" 0 0.00 366
Big Bend NP - Persimmon Gap  12:05 PM 82 64 56% NE1317 27 mph 35° @ 0959 AM 82 70 83 55 30.23" 0 0.00 702
Big Lake 1WNW  12:05 PM 83 62 49% E1012 20 mph 97° @ 1206 AM 84 68 91 48 30.26" 0 0.00 652
Brownfield 2S  12:05 PM 78 61 59% SE610 24 mph 103° @ 1240 AM 78 68 88 57 30.31" 0 0.00 644
Clyde 2WNW  12:05 PM 78 66 67% E57 15 mph 79° @ 1138 AM 79 68 96 65 30.27" 0 0.00 365
Coyanosa 2N  12:05 PM 86 61 43% SE1418 28 mph 132° @ 0405 AM 86 72 73 43 30.22" 0 0.00 756
Dell City  12:05 PM 84 62 48% S710 27 mph 142° @ 1020 AM 84 75 65 48 30.24" 0 0.00 766
Denver City 7WNW  12:05 PM 73 61 71% E810 29 mph 100° @ 1250 AM 73 67 86 62 30.32" 0 0.00 156
Fluvanna 3WNW  12:05 PM 80 61 53% E712 21 mph 92° @ 1230 AM 80 69 80 53 30.27" 0 0.00 981
Fort Chadbourne  12:05 PM 76 66 70% NE23 21 mph 103° @ 1242 AM 77 71 90 68 30.27" 0 0.00 221
Fort Lancaster  12:05 PM 86 62 45% SE811 24 mph 110° @ 1228 AM 86 72 80 44 30.21" 0 0.00 903
Fort McKavett  12:05 PM 82 66 59% N34 15 mph 82° @ 0153 AM 83 66 98 58 30.25" 0 0.00 726
Gail 2ESE  11:20 AM 81 61 54% E36 20 mph 101° @ 0120 AM 81 69 82 54 30.26" 0 0.00 724
Graham 5SSW  12:05 PM 79 61 56% SE912 21 mph 132° @ 0310 AM 79 69 84 56 30.29" 0 0.00 407
Guadalupe Mtns Natl Park  12:05 PM 74 59 61% NE45 16 mph 58° @ 0815 AM 74 64 89 57 30.38" 0 0.00 830
Haskell 1NW  12:05 PM 77 64 69% E46 12 mph 103° @ 0940 AM 78 69 100 68 30.26" 0 0.00 316
Hobbs NM 5NW  12:05 PM 74 63 69% S68 29 mph 99° @ 0115 AM 74 67 92 61 30.33" 0 0.00 399
Jayton 1SSE  12:05 PM 79 63 59% E57 17 mph 101° @ 1255 AM 79 68 89 59 30.26" 0 0.00 553
Junction 1SSW  12:05 PM 83 67 59% SE710 15 mph 38° @ 1029 AM 83 66 97 58 30.23" 0 0.00 896
Lake Alan Henry 1NW  12:05 PM 81 62 54% E68 16 mph 87° @ 1206 AM 82 71 75 53 30.26" 0 0.00 1131
Lamesa 2SE  12:05 PM 81 62 52% SE1015 26 mph 92° @ 0220 AM 81 69 86 52 30.28" 0 0.00 810
Lomax 1SSE  12:05 PM 82 64 56% S68 24 mph 74° @ 1211 AM 82 69 90 55 30.27" 0 0.00 767
McCamey 1SSW  12:05 PM 86 61 43% E1012 22 mph 119° @ 0229 AM 86 73 77 43 30.22" 0 0.00 812
Menard 2NW   12:05 PM 80 66 62% E1112 16 mph 91° @ 1141 AM 81 68 93 60 30.25" 0 0.00 427
Mertzon 3NNE  12:05 PM 80 66 63% NE79 17 mph 95° @ 1201 AM 80 67 97 62 30.26" 0 0.00 525
New Home  12:05 PM 78 62 58% E12 21 mph 105° @ 1247 AM 80 67 84 55 30.33" 0 0.00 246
O'Donnell 1N  12:05 PM 79 58 50% S37 23 mph 109° @ 0310 AM 79 68 80 50 30.30" 0 0.00 701
Plains 3N  12:05 PM 73 62 73% SE1115 27 mph 98° @ 1210 AM 73 67 87 63 30.33" 0 0.00 171
Post 1NE  12:05 PM 82 61 51% E37 13 mph 126° @ 0335 AM 82 68 78 50 30.28" 0 0.00 572
Seagraves 1SW  12:05 PM 77 64 65% E510 23 mph 118° @ 0305 AM 77 68 88 65 30.31" 0 0.00 549
Seminole 2NNE  12:05 PM 78 62 59% E811 28 mph 97° @ 0205 AM 79 67 88 58 30.30" 0 0.00 386
Sierra Blanca 1SSE  12:05 PM 83 62 48% SE1012 20 mph 90° @ 0106 AM 83 71 68 47 30.29" 0 0.00 934
Snyder 3E  12:05 PM 83 65 57% E811 21 mph 106° @ 0110 AM 83 69 88 57 30.27" 0 0.00 828
Snyder 3SSW  12:05 PM 80 64 58% E89 22 mph 96° @ 1224 AM 81 69 84 58 30.27" 0 0.00 629
St. Lawrence 5SW  12:05 PM 82 61 50% E812 31 mph 89° @ 1220 AM 82 68 86 50 30.26" 0 0.00 909
Stamford 5ESE  12:05 PM 80 66 61% E1416 16 mph 108° @ 1205 PM 80 70 91 61 30.26" 0 0.00 759
Sterling City 4WSW  12:05 PM 82 63 52% NE610 22 mph 103° @ 0202 AM 82 69 85 52 30.27" 0 0.00 811
Sundown 8WSW  12:05 PM 75 63 66% SE712 26 mph 168° @ 0720 AM 76 66 92 65 30.33" 0 0.00 317
Sweetwater 11SW   12:05 PM 76 66 70% E810 21 mph 109° @ 1252 AM 76 69 89 69 30.29" 0 0.00 359
Tahoka 3NNE  12:05 PM 79 60 53% S57 21 mph 88° @ 1210 AM 80 67 81 51 30.30" 0 0.00 290
Tarzan 2WNW  12:05 PM 81 64 55% SE1214 30 mph 78° @ 1232 AM 81 69 87 55 30.27" 0 0.00 742
Tatum NM 2SW  12:05 PM 72 61 71% SE1012 30 mph 105° @ 0200 AM 73 67 83 56 30.34" 0 0.00 186
Throckmorton 1SW  12:05 PM 79 67 68% E710 14 mph 125° @ 0954 AM 80 68 95 63 30.26" 0 0.00 1000
Wall 2E  12:05 PM 79 66 63% NE68 24 mph 87° @ 1210 AM 79 69 93 62 30.25" 0 0.00 928
Weinert 2NNE  12:05 PM 78 67 68% SE67 14 mph 95° @ 1146 AM 80 69 92 65 30.26" 0 0.00 368
Welch  12:05 PM 79 62 56% S24 26 mph 149° @ 0815 AM 81 69 87 55 30.31" 0 0.00 396

West Texas Mesonet Home   Site Map/Menu  NWS Lubbock Soil Data  Daily Summary Page  24hr Precip  72hr Precip  Google Plot